createdAt,value
2022-11-13T00:02:53.662Z,6.94
2022-11-13T00:08:14.146Z,6.88
2022-11-13T00:13:35.139Z,6.83
2022-11-13T00:18:55.598Z,6.80
2022-11-13T00:24:15.901Z,6.74
2022-11-13T00:29:36.197Z,6.70
2022-11-13T00:34:56.563Z,6.66
2022-11-13T00:40:17.281Z,6.62
2022-11-13T00:45:37.526Z,6.59
2022-11-13T00:50:58.284Z,6.59
2022-11-13T00:56:18.536Z,6.57
2022-11-13T01:01:39.345Z,6.53
2022-11-13T01:06:59.646Z,6.46
2022-11-13T01:12:20.037Z,6.30
2022-11-13T01:17:40.465Z,6.25
2022-11-13T01:23:01.060Z,6.24
2022-11-13T01:28:21.429Z,6.23
2022-11-13T01:33:41.852Z,6.18
2022-11-13T01:39:02.486Z,6.14
2022-11-13T01:44:23.293Z,6.12
2022-11-13T01:49:45.653Z,6.07
2022-11-13T01:55:12.052Z,6.00
2022-11-13T02:00:32.285Z,5.93
2022-11-13T02:05:56.787Z,5.91
2022-11-13T02:11:17.667Z,5.91
2022-11-13T02:16:39.477Z,5.83
2022-11-13T02:22:10.749Z,5.75
2022-11-13T02:27:36.552Z,5.70
2022-11-13T02:32:58.328Z,5.67
2022-11-13T02:38:18.964Z,5.46
2022-11-13T02:43:39.392Z,5.36
2022-11-13T02:48:59.993Z,5.35
2022-11-13T02:54:20.583Z,5.35
2022-11-13T02:59:41.536Z,5.38
2022-11-13T03:05:17.067Z,5.45
2022-11-13T03:10:37.584Z,5.53
2022-11-13T03:16:06.838Z,5.54
2022-11-13T03:21:27.372Z,5.52
2022-11-13T03:26:47.641Z,5.46
2022-11-13T03:32:07.704Z,5.41
2022-11-13T03:37:28.003Z,5.38
2022-11-13T03:42:48.409Z,5.36
2022-11-13T03:48:09.288Z,5.33
2022-11-13T03:53:29.745Z,5.31
2022-11-13T03:58:49.931Z,5.28
2022-11-13T04:04:10.267Z,5.27
2022-11-13T04:09:30.578Z,5.26
2022-11-13T04:14:50.863Z,5.22
2022-11-13T04:20:11.846Z,5.21
2022-11-13T04:25:32.290Z,5.18
2022-11-13T04:30:56.122Z,5.16
2022-11-13T04:36:16.422Z,5.07
2022-11-13T04:41:55.760Z,4.95
2022-11-13T04:47:16.052Z,4.89
2022-11-13T04:52:36.469Z,4.82
2022-11-13T04:57:56.745Z,4.84
2022-11-13T05:03:16.947Z,4.86
2022-11-13T05:08:37.312Z,4.90
2022-11-13T05:14:03.035Z,4.82
2022-11-13T05:19:24.646Z,4.74
2022-11-13T05:24:44.670Z,4.67
2022-11-13T05:30:05.638Z,4.62
2022-11-13T05:35:26.081Z,4.58
2022-11-13T05:40:46.683Z,4.52
2022-11-13T05:46:29.093Z,4.47
2022-11-13T05:51:49.307Z,4.44
2022-11-13T05:57:09.642Z,4.39
2022-11-13T06:02:30.115Z,4.37
2022-11-13T06:07:50.746Z,4.31
2022-11-13T06:13:10.982Z,4.28
2022-11-13T06:18:31.975Z,4.27
2022-11-13T06:23:52.426Z,4.33
2022-11-13T06:29:13.185Z,4.37
2022-11-13T06:34:33.456Z,4.39
2022-11-13T06:39:53.746Z,4.46
2022-11-13T06:45:14.129Z,4.47
2022-11-13T06:50:34.551Z,4.47
2022-11-13T06:55:54.666Z,4.43
2022-11-13T07:01:18.049Z,4.40
2022-11-13T07:06:40.552Z,4.43
2022-11-13T07:12:00.726Z,4.44
2022-11-13T07:17:21.016Z,4.47
2022-11-13T07:22:41.454Z,4.53
2022-11-13T07:28:01.751Z,4.57
2022-11-13T07:33:22.298Z,4.63
2022-11-13T07:38:42.754Z,4.71
2022-11-13T07:44:07.938Z,4.79
2022-11-13T07:49:29.689Z,4.87
2022-11-13T07:54:50.225Z,4.92
2022-11-13T08:00:11.337Z,5.03
2022-11-13T08:05:34.246Z,5.08
2022-11-13T08:10:54.358Z,5.18
2022-11-13T08:16:14.885Z,5.26
2022-11-13T08:21:35.991Z,5.31
2022-11-13T08:26:56.080Z,5.41
2022-11-13T08:32:18.215Z,5.49
2022-11-13T08:37:38.424Z,5.63
2022-11-13T08:43:03.932Z,5.75
2022-11-13T08:48:25.359Z,5.86
2022-11-13T08:53:45.787Z,5.92
2022-11-13T08:59:06.043Z,6.03
2022-11-13T09:04:27.121Z,6.21
2022-11-13T09:09:47.640Z,6.35
2022-11-13T09:15:08.522Z,6.53
2022-11-13T09:20:30.839Z,6.73
2022-11-13T09:25:51.159Z,6.90
2022-11-13T09:31:11.553Z,7.00
2022-11-13T09:36:31.911Z,7.11
2022-11-13T09:42:02.324Z,7.25
2022-11-13T09:47:30.624Z,7.38
2022-11-13T09:52:52.172Z,7.45
2022-11-13T09:58:38.937Z,7.56
2022-11-13T10:04:06.132Z,7.68
2022-11-13T10:09:55.584Z,7.77
2022-11-13T10:15:17.258Z,7.84
2022-11-13T10:20:49.959Z,7.89
2022-11-13T10:26:29.585Z,7.93
2022-11-13T10:31:52.342Z,7.94
2022-11-13T10:37:21.204Z,8.00
2022-11-13T10:42:41.835Z,8.08
2022-11-13T10:48:04.602Z,8.12
2022-11-13T10:53:27.586Z,8.22
2022-11-13T10:59:12.038Z,8.33
2022-11-13T11:04:32.480Z,8.42
2022-11-13T11:09:53.042Z,8.53
2022-11-13T11:15:37.206Z,8.68
2022-11-13T11:20:59.794Z,8.80
2022-11-13T11:26:35.345Z,8.87
2022-11-13T11:32:10.647Z,8.94
2022-11-13T11:37:44.124Z,8.93
2022-11-13T11:43:43.641Z,8.94
2022-11-13T11:49:03.974Z,8.95
2022-11-13T11:54:35.025Z,8.85
2022-11-13T12:00:13.443Z,8.78
2022-11-13T12:05:49.607Z,8.77
2022-11-13T12:11:37.647Z,8.82
2022-11-13T12:17:17.156Z,8.85
2022-11-13T12:23:02.714Z,8.87
2022-11-13T12:28:31.517Z,8.86
2022-11-13T12:34:18.885Z,8.87
2022-11-13T12:39:55.230Z,8.86
2022-11-13T12:45:38.602Z,8.85
2022-11-13T12:51:04.895Z,8.80
2022-11-13T12:56:26.117Z,8.76
2022-11-13T13:02:01.405Z,8.71
2022-11-13T13:07:48.009Z,8.70
2022-11-13T13:13:23.705Z,8.69
2022-11-13T13:18:45.143Z,8.66
2022-11-13T13:24:28.619Z,8.64
2022-11-13T13:29:48.968Z,8.63
2022-11-13T13:35:44.715Z,8.64
2022-11-13T13:41:58.788Z,8.70
2022-11-13T13:47:32.287Z,8.75
2022-11-13T13:52:55.915Z,8.77
2022-11-13T13:58:21.753Z,8.74
2022-11-13T14:03:42.395Z,8.70
2022-11-13T14:09:19.332Z,8.67
2022-11-13T14:14:40.164Z,8.61
2022-11-13T14:20:01.239Z,8.54
2022-11-13T14:25:28.051Z,8.46
2022-11-13T14:30:57.826Z,8.36
2022-11-13T14:36:27.810Z,8.30
2022-11-13T14:41:58.158Z,8.22
2022-11-13T14:47:37.760Z,8.15
2022-11-13T14:53:01.942Z,8.07
2022-11-13T14:58:29.726Z,8.00
2022-11-13T15:03:51.379Z,7.93
2022-11-13T15:09:15.525Z,7.91
2022-11-13T15:14:39.810Z,7.84
2022-11-13T15:20:02.148Z,7.75
2022-11-13T15:25:26.605Z,7.68
2022-11-13T15:30:47.104Z,7.60
2022-11-13T15:36:09.497Z,7.55
2022-11-13T15:41:30.606Z,7.54
2022-11-13T15:46:50.940Z,7.53
2022-11-13T15:52:11.575Z,7.50
2022-11-13T15:57:31.700Z,7.48
2022-11-13T16:02:56.918Z,7.43
2022-11-13T16:08:17.481Z,7.31
2022-11-13T16:13:38.197Z,7.26
2022-11-13T16:19:00.361Z,7.23
2022-11-13T16:24:24.189Z,7.22
2022-11-13T16:29:45.023Z,7.20
2022-11-13T16:35:05.871Z,7.18
2022-11-13T16:40:27.237Z,7.15
2022-11-13T16:45:47.804Z,7.15
2022-11-13T16:51:08.251Z,7.15
2022-11-13T16:56:30.723Z,7.13
2022-11-13T17:01:55.291Z,7.13
2022-11-13T17:07:16.171Z,7.17
2022-11-13T17:12:36.564Z,7.15
2022-11-13T17:17:58.624Z,7.18
2022-11-13T17:23:18.948Z,7.15
2022-11-13T17:28:40.459Z,7.13
2022-11-13T17:34:01.183Z,7.10
2022-11-13T17:39:21.813Z,7.09
2022-11-13T17:44:43.711Z,7.09
2022-11-13T17:50:07.594Z,7.09
2022-11-13T17:55:28.130Z,7.10
2022-11-13T18:00:49.155Z,7.09
2022-11-13T18:06:15.534Z,7.11
2022-11-13T18:11:41.243Z,7.12
2022-11-13T18:17:01.466Z,7.13
2022-11-13T18:22:22.561Z,7.19
2022-11-13T18:27:44.260Z,7.27
2022-11-13T18:33:05.091Z,7.31
2022-11-13T18:38:25.735Z,7.35
2022-11-13T18:43:48.587Z,7.40
2022-11-13T18:49:09.644Z,7.40
2022-11-13T18:54:30.133Z,7.40
2022-11-13T18:59:50.567Z,7.40
2022-11-13T19:05:11.443Z,7.41
2022-11-13T19:10:34.463Z,7.42
2022-11-13T19:15:56.071Z,7.48
2022-11-13T19:21:17.462Z,7.56
2022-11-13T19:26:38.978Z,7.62
2022-11-13T19:31:59.034Z,7.69
2022-11-13T19:37:19.521Z,7.75
2022-11-13T19:42:42.012Z,7.81
2022-11-13T19:48:02.867Z,7.83
2022-11-13T19:53:23.295Z,7.85
2022-11-13T19:58:44.893Z,7.83
2022-11-13T20:04:05.714Z,7.76
2022-11-13T20:09:25.914Z,7.71
2022-11-13T20:14:46.622Z,7.69
2022-11-13T20:20:08.365Z,7.67
2022-11-13T20:25:28.966Z,7.66
2022-11-13T20:30:51.662Z,7.64
2022-11-13T20:36:18.459Z,7.65
2022-11-13T20:41:39.023Z,7.68
2022-11-13T20:47:02.125Z,7.69
2022-11-13T20:52:24.767Z,7.71
2022-11-13T20:57:49.891Z,7.72
2022-11-13T21:03:10.228Z,7.72
2022-11-13T21:08:31.359Z,7.72
2022-11-13T21:13:55.682Z,7.71
2022-11-13T21:19:15.746Z,7.68
2022-11-13T21:24:37.999Z,7.67
2022-11-13T21:29:58.166Z,7.64
2022-11-13T21:35:22.384Z,7.61
2022-11-13T21:40:44.642Z,7.59
2022-11-13T21:46:06.345Z,7.59
2022-11-13T21:51:26.844Z,7.61
2022-11-13T21:56:47.003Z,7.62
2022-11-13T22:02:11.394Z,7.62
2022-11-13T22:07:32.233Z,7.64
2022-11-13T22:12:52.792Z,7.65
2022-11-13T22:18:13.046Z,7.66
2022-11-13T22:23:34.674Z,7.64
2022-11-13T22:28:56.343Z,7.63
2022-11-13T22:34:16.987Z,7.63
2022-11-13T22:39:37.738Z,7.63
2022-11-13T22:44:57.940Z,7.63
2022-11-13T22:50:18.281Z,7.62
2022-11-13T22:55:38.619Z,7.62
2022-11-13T23:01:07.912Z,7.61
2022-11-13T23:06:31.674Z,7.56
2022-11-13T23:11:51.789Z,7.53
2022-11-13T23:17:12.281Z,7.50
2022-11-13T23:22:32.574Z,7.47
2022-11-13T23:27:52.917Z,7.47
2022-11-13T23:33:13.389Z,7.46
2022-11-13T23:38:33.966Z,7.46
2022-11-13T23:44:08.071Z,7.49
2022-11-13T23:49:29.037Z,7.51
2022-11-13T23:54:49.225Z,7.50
